sensor_id;sensor_type;location;lat;lon;timestamp;P1;P2;P0
55754;PMS5003;41674;52.290;-1.474;2022-10-30T00:02:08;8;4;
55754;PMS5003;41674;52.290;-1.474;2022-10-30T00:04:35;6;5;
55754;PMS5003;41674;52.290;-1.474;2022-10-30T00:07:05;6;4;
55754;PMS5003;41674;52.290;-1.474;2022-10-30T00:09:34;3;1;
55754;PMS5003;41674;52.290;-1.474;2022-10-30T00:12:04;7;3;
55754;PMS5003;41674;52.290;-1.474;2022-10-30T00:14:34;7;3;
55754;PMS5003;41674;52.290;-1.474;2022-10-30T00:17:03;3;3;
55754;PMS5003;41674;52.290;-1.474;2022-10-30T00:19:33;5;3;
55754;PMS5003;41674;52.290;-1.474;2022-10-30T00:22:02;3;2;
55754;PMS5003;41674;52.290;-1.474;2022-10-30T00:24:32;7;5;
55754;PMS5003;41674;52.290;-1.474;2022-10-30T00:27:01;4;2;
55754;PMS5003;41674;52.290;-1.474;2022-10-30T00:29:30;3;3;
55754;PMS5003;41674;52.290;-1.474;2022-10-30T00:32:00;4;3;
55754;PMS5003;41674;52.290;-1.474;2022-10-30T00:34:30;4;4;
55754;PMS5003;41674;52.290;-1.474;2022-10-30T00:36:59;4;2;
55754;PMS5003;41674;52.290;-1.474;2022-10-30T00:39:29;5;4;
55754;PMS5003;41674;52.290;-1.474;2022-10-30T00:41:58;7;5;
55754;PMS5003;41674;52.290;-1.474;2022-10-30T00:44:31;4;3;
55754;PMS5003;41674;52.290;-1.474;2022-10-30T00:46:58;4;4;
55754;PMS5003;41674;52.290;-1.474;2022-10-30T00:49:27;3;3;
55754;PMS5003;41674;52.290;-1.474;2022-10-30T00:51:57;5;3;
55754;PMS5003;41674;52.290;-1.474;2022-10-30T00:54:26;4;2;
55754;PMS5003;41674;52.290;-1.474;2022-10-30T00:56:55;4;4;
55754;PMS5003;41674;52.290;-1.474;2022-10-30T00:59:25;3;2;
55754;PMS5003;41674;52.290;-1.474;2022-10-30T01:01:54;3;2;
55754;PMS5003;41674;52.290;-1.474;2022-10-30T01:04:24;3;3;
55754;PMS5003;41674;52.290;-1.474;2022-10-30T01:06:53;5;4;
55754;PMS5003;41674;52.290;-1.474;2022-10-30T01:09:23;5;4;
55754;PMS5003;41674;52.290;-1.474;2022-10-30T01:11:52;2;2;
55754;PMS5003;41674;52.290;-1.474;2022-10-30T01:14:22;2;2;
55754;PMS5003;41674;52.290;-1.474;2022-10-30T01:16:56;3;3;
55754;PMS5003;41674;52.290;-1.474;2022-10-30T01:19:21;4;2;
55754;PMS5003;41674;52.290;-1.474;2022-10-30T01:21:55;3;3;
55754;PMS5003;41674;52.290;-1.474;2022-10-30T01:24:25;5;3;
55754;PMS5003;41674;52.290;-1.474;2022-10-30T01:26:51;5;3;
55754;PMS5003;41674;52.290;-1.474;2022-10-30T01:29:23;3;3;
55754;PMS5003;41674;52.290;-1.474;2022-10-30T01:31:52;3;3;
55754;PMS5003;41674;52.290;-1.474;2022-10-30T01:34:19;6;4;
55754;PMS5003;41674;52.290;-1.474;2022-10-30T01:36:49;3;3;
55754;PMS5003;41674;52.290;-1.474;2022-10-30T01:39:18;3;3;
55754;PMS5003;41674;52.290;-1.474;2022-10-30T01:41:47;6;3;
55754;PMS5003;41674;52.290;-1.474;2022-10-30T01:44:17;4;3;
55754;PMS5003;41674;52.290;-1.474;2022-10-30T01:46:51;4;3;
55754;PMS5003;41674;52.290;-1.474;2022-10-30T01:49:24;4;3;
55754;PMS5003;41674;52.290;-1.474;2022-10-30T01:51:49;2;2;
55754;PMS5003;41674;52.290;-1.474;2022-10-30T01:54:18;5;2;
55754;PMS5003;41674;52.290;-1.474;2022-10-30T01:56:46;3;3;
55754;PMS5003;41674;52.290;-1.474;2022-10-30T01:59:16;5;5;
55754;PMS5003;41674;52.290;-1.474;2022-10-30T02:01:43;8;4;
55754;PMS5003;41674;52.290;-1.474;2022-10-30T02:04:13;5;4;
55754;PMS5003;41674;52.290;-1.474;2022-10-30T02:06:42;3;2;
55754;PMS5003;41674;52.290;-1.474;2022-10-30T02:09:13;3;2;
55754;PMS5003;41674;52.290;-1.474;2022-10-30T02:11:41;6;3;
55754;PMS5003;41674;52.290;-1.474;2022-10-30T02:14:11;2;2;
55754;PMS5003;41674;52.290;-1.474;2022-10-30T02:16:41;4;4;
55754;PMS5003;41674;52.290;-1.474;2022-10-30T02:19:10;3;2;
55754;PMS5003;41674;52.290;-1.474;2022-10-30T02:21:40;5;3;
55754;PMS5003;41674;52.290;-1.474;2022-10-30T02:24:09;6;4;
55754;PMS5003;41674;52.290;-1.474;2022-10-30T02:26:39;5;3;
55754;PMS5003;41674;52.290;-1.474;2022-10-30T02:29:08;3;2;
55754;PMS5003;41674;52.290;-1.474;2022-10-30T02:31:38;4;1;
55754;PMS5003;41674;52.290;-1.474;2022-10-30T02:34:07;3;2;
55754;PMS5003;41674;52.290;-1.474;2022-10-30T02:36:37;5;2;
55754;PMS5003;41674;52.290;-1.474;2022-10-30T02:39:07;5;4;
55754;PMS5003;41674;52.290;-1.474;2022-10-30T02:41:36;3;2;
55754;PMS5003;41674;52.290;-1.474;2022-10-30T02:44:08;5;5;
55754;PMS5003;41674;52.290;-1.474;2022-10-30T02:46:36;4;2;
55754;PMS5003;41674;52.290;-1.474;2022-10-30T02:49:05;4;4;
55754;PMS5003;41674;52.290;-1.474;2022-10-30T02:51:34;4;4;
55754;PMS5003;41674;52.290;-1.474;2022-10-30T02:54:04;4;3;
55754;PMS5003;41674;52.290;-1.474;2022-10-30T02:56:35;1;1;
55754;PMS5003;41674;52.290;-1.474;2022-10-30T02:59:03;4;3;
55754;PMS5003;41674;52.290;-1.474;2022-10-30T03:01:32;5;2;
55754;PMS5003;41674;52.290;-1.474;2022-10-30T03:04:02;2;2;
55754;PMS5003;41674;52.290;-1.474;2022-10-30T03:06:31;3;3;
55754;PMS5003;41674;52.290;-1.474;2022-10-30T03:09:01;5;2;
55754;PMS5003;41674;52.290;-1.474;2022-10-30T03:11:32;2;2;
55754;PMS5003;41674;52.290;-1.474;2022-10-30T03:14:00;1;1;
55754;PMS5003;41674;52.290;-1.474;2022-10-30T03:16:29;5;2;
55754;PMS5003;41674;52.290;-1.474;2022-10-30T03:18:59;4;4;
55754;PMS5003;41674;52.290;-1.474;2022-10-30T03:21:29;2;2;
55754;PMS5003;41674;52.290;-1.474;2022-10-30T03:23:58;3;3;
55754;PMS5003;41674;52.290;-1.474;2022-10-30T03:26:28;1;1;
55754;PMS5003;41674;52.290;-1.474;2022-10-30T03:28:57;4;3;
55754;PMS5003;41674;52.290;-1.474;2022-10-30T03:31:29;2;2;
55754;PMS5003;41674;52.290;-1.474;2022-10-30T03:33:56;4;3;
55754;PMS5003;41674;52.290;-1.474;2022-10-30T03:36:26;3;3;
55754;PMS5003;41674;52.290;-1.474;2022-10-30T03:38:55;1;1;
55754;PMS5003;41674;52.290;-1.474;2022-10-30T03:41:25;4;1;
55754;PMS5003;41674;52.290;-1.474;2022-10-30T03:43:54;4;3;
55754;PMS5003;41674;52.290;-1.474;2022-10-30T03:46:24;3;2;
55754;PMS5003;41674;52.290;-1.474;2022-10-30T03:48:54;4;4;
55754;PMS5003;41674;52.290;-1.474;2022-10-30T03:51:23;5;2;
55754;PMS5003;41674;52.290;-1.474;2022-10-30T03:53:53;5;4;
55754;PMS5003;41674;52.290;-1.474;2022-10-30T03:56:22;3;3;
55754;PMS5003;41674;52.290;-1.474;2022-10-30T03:58:52;3;3;
55754;PMS5003;41674;52.290;-1.474;2022-10-30T04:01:22;4;1;
55754;PMS5003;41674;52.290;-1.474;2022-10-30T04:03:51;3;1;
55754;PMS5003;41674;52.290;-1.474;2022-10-30T04:06:21;3;2;
55754;PMS5003;41674;52.290;-1.474;2022-10-30T04:08:53;5;2;
55754;PMS5003;41674;52.290;-1.474;2022-10-30T04:11:20;4;2;
55754;PMS5003;41674;52.290;-1.474;2022-10-30T04:13:49;5;5;
55754;PMS5003;41674;52.290;-1.474;2022-10-30T04:16:19;3;2;
55754;PMS5003;41674;52.290;-1.474;2022-10-30T04:18:48;4;1;
55754;PMS5003;41674;52.290;-1.474;2022-10-30T04:21:23;3;2;
55754;PMS5003;41674;52.290;-1.474;2022-10-30T04:23:48;7;4;
55754;PMS5003;41674;52.290;-1.474;2022-10-30T04:26:17;5;4;
55754;PMS5003;41674;52.290;-1.474;2022-10-30T04:28:47;4;3;
55754;PMS5003;41674;52.290;-1.474;2022-10-30T04:31:16;4;4;
55754;PMS5003;41674;52.290;-1.474;2022-10-30T04:33:46;4;4;
55754;PMS5003;41674;52.290;-1.474;2022-10-30T04:36:15;4;3;
55754;PMS5003;41674;52.290;-1.474;2022-10-30T04:38:45;1;1;
55754;PMS5003;41674;52.290;-1.474;2022-10-30T04:41:15;2;2;
55754;PMS5003;41674;52.290;-1.474;2022-10-30T04:43:46;5;3;
55754;PMS5003;41674;52.290;-1.474;2022-10-30T04:46:13;3;3;
55754;PMS5003;41674;52.290;-1.474;2022-10-30T04:48:43;4;4;
55754;PMS5003;41674;52.290;-1.474;2022-10-30T04:51:13;3;2;
55754;PMS5003;41674;52.290;-1.474;2022-10-30T04:53:42;3;3;
55754;PMS5003;41674;52.290;-1.474;2022-10-30T04:56:11;1;1;
55754;PMS5003;41674;52.290;-1.474;2022-10-30T04:58:41;3;2;
55754;PMS5003;41674;52.290;-1.474;2022-10-30T05:01:11;4;3;
55754;PMS5003;41674;52.290;-1.474;2022-10-30T05:03:40;2;2;
55754;PMS5003;41674;52.290;-1.474;2022-10-30T05:06:14;4;2;
55754;PMS5003;41674;52.290;-1.474;2022-10-30T05:08:39;6;3;
55754;PMS5003;41674;52.290;-1.474;2022-10-30T05:11:10;3;2;
55754;PMS5003;41674;52.290;-1.474;2022-10-30T05:13:38;3;3;
55754;PMS5003;41674;52.290;-1.474;2022-10-30T05:16:13;3;3;
55754;PMS5003;41674;52.290;-1.474;2022-10-30T05:18:38;3;2;
55754;PMS5003;41674;52.290;-1.474;2022-10-30T05:21:07;6;3;
55754;PMS5003;41674;52.290;-1.474;2022-10-30T05:23:36;7;3;
55754;PMS5003;41674;52.290;-1.474;2022-10-30T05:26:06;2;2;
55754;PMS5003;41674;52.290;-1.474;2022-10-30T05:28:36;2;0;
55754;PMS5003;41674;52.290;-1.474;2022-10-30T05:31:05;4;4;
55754;PMS5003;41674;52.290;-1.474;2022-10-30T05:33:35;2;2;
55754;PMS5003;41674;52.290;-1.474;2022-10-30T05:36:05;2;2;
55754;PMS5003;41674;52.290;-1.474;2022-10-30T05:38:34;7;3;
55754;PMS5003;41674;52.290;-1.474;2022-10-30T05:41:04;3;2;
55754;PMS5003;41674;52.290;-1.474;2022-10-30T05:43:33;3;3;
55754;PMS5003;41674;52.290;-1.474;2022-10-30T05:46:03;7;3;
55754;PMS5003;41674;52.290;-1.474;2022-10-30T05:48:32;6;4;
55754;PMS5003;41674;52.290;-1.474;2022-10-30T05:51:02;4;2;
55754;PMS5003;41674;52.290;-1.474;2022-10-30T05:53:31;3;2;
55754;PMS5003;41674;52.290;-1.474;2022-10-30T05:56:01;5;3;
55754;PMS5003;41674;52.290;-1.474;2022-10-30T05:58:31;2;2;
55754;PMS5003;41674;52.290;-1.474;2022-10-30T06:01:03;4;4;
55754;PMS5003;41674;52.290;-1.474;2022-10-30T06:03:30;5;3;
55754;PMS5003;41674;52.290;-1.474;2022-10-30T06:05:59;3;3;
55754;PMS5003;41674;52.290;-1.474;2022-10-30T06:08:29;5;4;
55754;PMS5003;41674;52.290;-1.474;2022-10-30T06:10:59;7;5;
55754;PMS5003;41674;52.290;-1.474;2022-10-30T06:13:28;6;3;
55754;PMS5003;41674;52.290;-1.474;2022-10-30T06:15:58;3;2;
55754;PMS5003;41674;52.290;-1.474;2022-10-30T06:18:27;3;2;
55754;PMS5003;41674;52.290;-1.474;2022-10-30T06:20:57;3;3;
55754;PMS5003;41674;52.290;-1.474;2022-10-30T06:23:26;3;3;
55754;PMS5003;41674;52.290;-1.474;2022-10-30T06:25:56;1;1;
55754;PMS5003;41674;52.290;-1.474;2022-10-30T06:28:25;3;2;
55754;PMS5003;41674;52.290;-1.474;2022-10-30T06:30:55;6;3;
55754;PMS5003;41674;52.290;-1.474;2022-10-30T06:33:25;3;3;
55754;PMS5003;41674;52.290;-1.474;2022-10-30T06:35:54;3;3;
55754;PMS5003;41674;52.290;-1.474;2022-10-30T06:38:24;3;3;
55754;PMS5003;41674;52.290;-1.474;2022-10-30T06:40:53;5;4;
55754;PMS5003;41674;52.290;-1.474;2022-10-30T06:43:23;5;3;
55754;PMS5003;41674;52.290;-1.474;2022-10-30T06:45:52;4;4;
55754;PMS5003;41674;52.290;-1.474;2022-10-30T06:48:22;3;3;
55754;PMS5003;41674;52.290;-1.474;2022-10-30T06:50:53;3;3;
55754;PMS5003;41674;52.290;-1.474;2022-10-30T06:53:21;3;3;
55754;PMS5003;41674;52.290;-1.474;2022-10-30T06:55:54;5;3;
55754;PMS5003;41674;52.290;-1.474;2022-10-30T06:58:20;6;3;
55754;PMS5003;41674;52.290;-1.474;2022-10-30T07:00:50;5;3;
55754;PMS5003;41674;52.290;-1.474;2022-10-30T07:03:19;6;5;
55754;PMS5003;41674;52.290;-1.474;2022-10-30T07:05:50;2;2;
55754;PMS5003;41674;52.290;-1.474;2022-10-30T07:08:18;3;2;
55754;PMS5003;41674;52.290;-1.474;2022-10-30T07:10:48;3;3;
55754;PMS5003;41674;52.290;-1.474;2022-10-30T07:13:17;3;2;
55754;PMS5003;41674;52.290;-1.474;2022-10-30T07:15:47;2;2;
55754;PMS5003;41674;52.290;-1.474;2022-10-30T07:18:16;5;3;
55754;PMS5003;41674;52.290;-1.474;2022-10-30T07:20:46;4;4;
55754;PMS5003;41674;52.290;-1.474;2022-10-30T07:23:15;4;3;
55754;PMS5003;41674;52.290;-1.474;2022-10-30T07:25:45;2;2;
55754;PMS5003;41674;52.290;-1.474;2022-10-30T07:28:14;7;5;
55754;PMS5003;41674;52.290;-1.474;2022-10-30T07:30:44;4;3;
55754;PMS5003;41674;52.290;-1.474;2022-10-30T07:33:14;4;2;
55754;PMS5003;41674;52.290;-1.474;2022-10-30T07:35:43;7;4;
55754;PMS5003;41674;52.290;-1.474;2022-10-30T07:38:13;2;2;
55754;PMS5003;41674;52.290;-1.474;2022-10-30T07:40:42;4;4;
55754;PMS5003;41674;52.290;-1.474;2022-10-30T07:43:12;3;3;
55754;PMS5003;41674;52.290;-1.474;2022-10-30T07:45:43;6;3;
55754;PMS5003;41674;52.290;-1.474;2022-10-30T07:48:11;4;4;
55754;PMS5003;41674;52.290;-1.474;2022-10-30T07:50:40;7;4;
55754;PMS5003;41674;52.290;-1.474;2022-10-30T07:53:10;5;2;
55754;PMS5003;41674;52.290;-1.474;2022-10-30T07:55:40;4;4;
55754;PMS5003;41674;52.290;-1.474;2022-10-30T07:58:09;5;3;
55754;PMS5003;41674;52.290;-1.474;2022-10-30T08:00:44;5;2;
55754;PMS5003;41674;52.290;-1.474;2022-10-30T08:03:08;7;3;
55754;PMS5003;41674;52.290;-1.474;2022-10-30T08:05:38;5;3;
55754;PMS5003;41674;52.290;-1.474;2022-10-30T08:08:08;2;2;
55754;PMS5003;41674;52.290;-1.474;2022-10-30T08:10:37;2;2;
55754;PMS5003;41674;52.290;-1.474;2022-10-30T08:13:06;1;1;
55754;PMS5003;41674;52.290;-1.474;2022-10-30T08:15:36;5;2;
55754;PMS5003;41674;52.290;-1.474;2022-10-30T08:18:05;5;3;
55754;PMS5003;41674;52.290;-1.474;2022-10-30T08:20:40;3;3;
55754;PMS5003;41674;52.290;-1.474;2022-10-30T08:23:04;5;5;
55754;PMS5003;41674;52.290;-1.474;2022-10-30T08:25:34;4;4;
55754;PMS5003;41674;52.290;-1.474;2022-10-30T08:28:04;4;4;
55754;PMS5003;41674;52.290;-1.474;2022-10-30T08:30:34;4;3;
55754;PMS5003;41674;52.290;-1.474;2022-10-30T08:33:03;4;4;
55754;PMS5003;41674;52.290;-1.474;2022-10-30T08:35:32;4;3;
55754;PMS5003;41674;52.290;-1.474;2022-10-30T08:38:02;6;4;
55754;PMS5003;41674;52.290;-1.474;2022-10-30T08:40:31;4;3;
55754;PMS5003;41674;52.290;-1.474;2022-10-30T08:43:01;4;4;
55754;PMS5003;41674;52.290;-1.474;2022-10-30T08:45:30;5;4;
55754;PMS5003;41674;52.290;-1.474;2022-10-30T08:48:01;2;2;
55754;PMS5003;41674;52.290;-1.474;2022-10-30T08:50:30;3;3;
55754;PMS5003;41674;52.290;-1.474;2022-10-30T08:52:59;6;5;
55754;PMS5003;41674;52.290;-1.474;2022-10-30T08:55:28;2;2;
55754;PMS5003;41674;52.290;-1.474;2022-10-30T08:57:57;6;4;
55754;PMS5003;41674;52.290;-1.474;2022-10-30T09:00:27;4;2;
55754;PMS5003;41674;52.290;-1.474;2022-10-30T09:03:02;4;4;
55754;PMS5003;41674;52.290;-1.474;2022-10-30T09:05:26;3;3;
55754;PMS5003;41674;52.290;-1.474;2022-10-30T09:07:56;3;3;
55754;PMS5003;41674;52.290;-1.474;2022-10-30T09:10:25;3;3;
55754;PMS5003;41674;52.290;-1.474;2022-10-30T09:12:55;4;4;
55754;PMS5003;41674;52.290;-1.474;2022-10-30T09:15:25;4;4;
55754;PMS5003;41674;52.290;-1.474;2022-10-30T09:17:54;7;3;
55754;PMS5003;41674;52.290;-1.474;2022-10-30T09:20:23;3;3;
55754;PMS5003;41674;52.290;-1.474;2022-10-30T09:22:52;1;1;
55754;PMS5003;41674;52.290;-1.474;2022-10-30T09:25:22;3;3;
55754;PMS5003;41674;52.290;-1.474;2022-10-30T09:27:51;6;2;
55754;PMS5003;41674;52.290;-1.474;2022-10-30T09:30:21;5;3;
55754;PMS5003;41674;52.290;-1.474;2022-10-30T09:32:53;4;3;
55754;PMS5003;41674;52.290;-1.474;2022-10-30T09:35:20;5;3;
55754;PMS5003;41674;52.290;-1.474;2022-10-30T09:37:51;5;3;
55754;PMS5003;41674;52.290;-1.474;2022-10-30T09:40:32;3;1;
55754;PMS5003;41674;52.290;-1.474;2022-10-30T09:42:49;3;2;
55754;PMS5003;41674;52.290;-1.474;2022-10-30T09:45:26;4;3;
55754;PMS5003;41674;52.290;-1.474;2022-10-30T09:47:50;8;5;
55754;PMS5003;41674;52.290;-1.474;2022-10-30T09:50:21;3;3;
55754;PMS5003;41674;52.290;-1.474;2022-10-30T09:52:56;6;2;
55754;PMS5003;41674;52.290;-1.474;2022-10-30T09:55:20;5;5;
55754;PMS5003;41674;52.290;-1.474;2022-10-30T09:57:48;5;4;
55754;PMS5003;41674;52.290;-1.474;2022-10-30T10:00:16;2;0;
55754;PMS5003;41674;52.290;-1.474;2022-10-30T10:02:51;5;5;
55754;PMS5003;41674;52.290;-1.474;2022-10-30T10:05:16;4;4;
55754;PMS5003;41674;52.290;-1.474;2022-10-30T10:07:46;3;3;
55754;PMS5003;41674;52.290;-1.474;2022-10-30T10:10:16;3;3;
55754;PMS5003;41674;52.290;-1.474;2022-10-30T10:12:44;11;4;
55754;PMS5003;41674;52.290;-1.474;2022-10-30T10:15:15;5;4;
55754;PMS5003;41674;52.290;-1.474;2022-10-30T10:17:43;4;3;
55754;PMS5003;41674;52.290;-1.474;2022-10-30T10:20:15;5;5;
55754;PMS5003;41674;52.290;-1.474;2022-10-30T10:22:43;4;3;
55754;PMS5003;41674;52.290;-1.474;2022-10-30T10:25:12;4;4;
55754;PMS5003;41674;52.290;-1.474;2022-10-30T10:27:44;7;2;
55754;PMS5003;41674;52.290;-1.474;2022-10-30T10:30:11;4;4;
55754;PMS5003;41674;52.290;-1.474;2022-10-30T10:32:43;3;3;
55754;PMS5003;41674;52.290;-1.474;2022-10-30T10:37:40;6;5;
55754;PMS5003;41674;52.290;-1.474;2022-10-30T10:40:19;4;3;
55754;PMS5003;41674;52.290;-1.474;2022-10-30T10:42:38;4;4;
55754;PMS5003;41674;52.290;-1.474;2022-10-30T10:45:14;5;4;
55754;PMS5003;41674;52.290;-1.474;2022-10-30T10:50:13;4;3;
55754;PMS5003;41674;52.290;-1.474;2022-10-30T10:52:36;4;3;
55754;PMS5003;41674;52.290;-1.474;2022-10-30T10:55:07;3;3;
55754;PMS5003;41674;52.290;-1.474;2022-10-30T10:57:35;3;2;
55754;PMS5003;41674;52.290;-1.474;2022-10-30T11:00:05;3;3;
55754;PMS5003;41674;52.290;-1.474;2022-10-30T11:02:35;4;2;
55754;PMS5003;41674;52.290;-1.474;2022-10-30T11:05:05;7;4;
55754;PMS5003;41674;52.290;-1.474;2022-10-30T11:07:43;5;4;
55754;PMS5003;41674;52.290;-1.474;2022-10-30T11:10:10;3;3;
55754;PMS5003;41674;52.290;-1.474;2022-10-30T11:12:33;4;3;
55754;PMS5003;41674;52.290;-1.474;2022-10-30T11:15:02;3;3;
55754;PMS5003;41674;52.290;-1.474;2022-10-30T11:17:32;6;4;
55754;PMS5003;41674;52.290;-1.474;2022-10-30T11:20:02;4;3;
55754;PMS5003;41674;52.290;-1.474;2022-10-30T11:22:31;7;2;
55754;PMS5003;41674;52.290;-1.474;2022-10-30T11:27:29;3;3;
55754;PMS5003;41674;52.290;-1.474;2022-10-30T11:29:59;1;1;
55754;PMS5003;41674;52.290;-1.474;2022-10-30T11:32:29;2;1;
55754;PMS5003;41674;52.290;-1.474;2022-10-30T11:35:00;6;4;
55754;PMS5003;41674;52.290;-1.474;2022-10-30T11:37:28;4;1;
55754;PMS5003;41674;52.290;-1.474;2022-10-30T11:40:00;4;4;
55754;PMS5003;41674;52.290;-1.474;2022-10-30T11:42:26;1;1;
55754;PMS5003;41674;52.290;-1.474;2022-10-30T11:44:56;3;3;
55754;PMS5003;41674;52.290;-1.474;2022-10-30T11:47:26;4;4;
55754;PMS5003;41674;52.290;-1.474;2022-10-30T11:49:55;5;2;
55754;PMS5003;41674;52.290;-1.474;2022-10-30T11:52:25;3;3;
55754;PMS5003;41674;52.290;-1.474;2022-10-30T11:54:55;3;3;
55754;PMS5003;41674;52.290;-1.474;2022-10-30T11:57:26;2;2;
55754;PMS5003;41674;52.290;-1.474;2022-10-30T11:59:53;3;3;
55754;PMS5003;41674;52.290;-1.474;2022-10-30T12:02:24;9;6;
55754;PMS5003;41674;52.290;-1.474;2022-10-30T12:04:53;9;4;
55754;PMS5003;41674;52.290;-1.474;2022-10-30T12:07:24;4;3;
55754;PMS5003;41674;52.290;-1.474;2022-10-30T12:09:52;7;6;
55754;PMS5003;41674;52.290;-1.474;2022-10-30T12:12:22;5;3;
55754;PMS5003;41674;52.290;-1.474;2022-10-30T12:14:51;5;4;
55754;PMS5003;41674;52.290;-1.474;2022-10-30T12:17:20;1;1;
55754;PMS5003;41674;52.290;-1.474;2022-10-30T12:19:50;3;3;
55754;PMS5003;41674;52.290;-1.474;2022-10-30T12:22:27;2;2;
55754;PMS5003;41674;52.290;-1.474;2022-10-30T12:24:50;2;2;
55754;PMS5003;41674;52.290;-1.474;2022-10-30T12:27:18;2;2;
55754;PMS5003;41674;52.290;-1.474;2022-10-30T12:29:53;4;4;
55754;PMS5003;41674;52.290;-1.474;2022-10-30T12:32:18;4;2;
55754;PMS5003;41674;52.290;-1.474;2022-10-30T12:34:54;4;3;
55754;PMS5003;41674;52.290;-1.474;2022-10-30T12:39:50;5;4;
55754;PMS5003;41674;52.290;-1.474;2022-10-30T12:42:16;6;6;
55754;PMS5003;41674;52.290;-1.474;2022-10-30T12:44:46;3;2;
55754;PMS5003;41674;52.290;-1.474;2022-10-30T12:47:16;2;1;
55754;PMS5003;41674;52.290;-1.474;2022-10-30T12:49:45;4;2;
55754;PMS5003;41674;52.290;-1.474;2022-10-30T12:52:16;3;3;
55754;PMS5003;41674;52.290;-1.474;2022-10-30T12:54:45;3;3;
55754;PMS5003;41674;52.290;-1.474;2022-10-30T12:57:13;2;2;
55754;PMS5003;41674;52.290;-1.474;2022-10-30T12:59:45;7;2;
55754;PMS5003;41674;52.290;-1.474;2022-10-30T13:02:17;3;3;
55754;PMS5003;41674;52.290;-1.474;2022-10-30T13:04:42;4;3;
55754;PMS5003;41674;52.290;-1.474;2022-10-30T13:07:12;4;3;
55754;PMS5003;41674;52.290;-1.474;2022-10-30T13:09:41;3;2;
55754;PMS5003;41674;52.290;-1.474;2022-10-30T13:12:11;3;3;
55754;PMS5003;41674;52.290;-1.474;2022-10-30T13:14:40;2;2;
55754;PMS5003;41674;52.290;-1.474;2022-10-30T13:17:09;2;0;
55754;PMS5003;41674;52.290;-1.474;2022-10-30T13:19:39;2;1;
55754;PMS5003;41674;52.290;-1.474;2022-10-30T13:22:11;1;1;
55754;PMS5003;41674;52.290;-1.474;2022-10-30T13:24:41;1;1;
55754;PMS5003;41674;52.290;-1.474;2022-10-30T13:27:09;1;1;
55754;PMS5003;41674;52.290;-1.474;2022-10-30T13:29:38;1;1;
55754;PMS5003;41674;52.290;-1.474;2022-10-30T13:32:11;1;0;
55754;PMS5003;41674;52.290;-1.474;2022-10-30T13:34:38;0;0;
55754;PMS5003;41674;52.290;-1.474;2022-10-30T13:37:11;1;0;
55754;PMS5003;41674;52.290;-1.474;2022-10-30T13:39:36;2;0;
55754;PMS5003;41674;52.290;-1.474;2022-10-30T13:42:09;0;0;
55754;PMS5003;41674;52.290;-1.474;2022-10-30T13:44:37;0;0;
55754;PMS5003;41674;52.290;-1.474;2022-10-30T13:47:05;1;0;
55754;PMS5003;41674;52.290;-1.474;2022-10-30T13:49:38;1;1;
55754;PMS5003;41674;52.290;-1.474;2022-10-30T13:52:04;1;0;
55754;PMS5003;41674;52.290;-1.474;2022-10-30T13:54:34;0;0;
55754;PMS5003;41674;52.290;-1.474;2022-10-30T13:59:38;1;1;
55754;PMS5003;41674;52.290;-1.474;2022-10-30T14:02:02;4;4;
55754;PMS5003;41674;52.290;-1.474;2022-10-30T14:04:33;3;1;
55754;PMS5003;41674;52.290;-1.474;2022-10-30T14:07:04;1;1;
55754;PMS5003;41674;52.290;-1.474;2022-10-30T14:09:32;1;1;
55754;PMS5003;41674;52.290;-1.474;2022-10-30T14:12:00;1;1;
55754;PMS5003;41674;52.290;-1.474;2022-10-30T14:14:29;0;0;
55754;PMS5003;41674;52.290;-1.474;2022-10-30T14:17:08;2;2;
55754;PMS5003;41674;52.290;-1.474;2022-10-30T14:19:27;1;1;
55754;PMS5003;41674;52.290;-1.474;2022-10-30T14:21:57;2;0;
55754;PMS5003;41674;52.290;-1.474;2022-10-30T14:24:27;0;0;
55754;PMS5003;41674;52.290;-1.474;2022-10-30T14:29:30;1;1;
55754;PMS5003;41674;52.290;-1.474;2022-10-30T14:31:55;1;1;
55754;PMS5003;41674;52.290;-1.474;2022-10-30T14:36:54;1;0;
55754;PMS5003;41674;52.290;-1.474;2022-10-30T14:39:25;2;1;
55754;PMS5003;41674;52.290;-1.474;2022-10-30T14:41:58;1;1;
55754;PMS5003;41674;52.290;-1.474;2022-10-30T14:44:27;1;1;
55754;PMS5003;41674;52.290;-1.474;2022-10-30T14:46:56;2;2;
55754;PMS5003;41674;52.290;-1.474;2022-10-30T14:49:30;1;1;
55754;PMS5003;41674;52.290;-1.474;2022-10-30T14:51:53;0;0;
55754;PMS5003;41674;52.290;-1.474;2022-10-30T14:54:21;2;1;
55754;PMS5003;41674;52.290;-1.474;2022-10-30T14:56:50;1;1;
55754;PMS5003;41674;52.290;-1.474;2022-10-30T14:59:22;3;2;
55754;PMS5003;41674;52.290;-1.474;2022-10-30T15:01:52;2;2;
55754;PMS5003;41674;52.290;-1.474;2022-10-30T15:04:21;3;3;
55754;PMS5003;41674;52.290;-1.474;2022-10-30T15:06:52;1;1;
55754;PMS5003;41674;52.290;-1.474;2022-10-30T15:09:27;0;0;
55754;PMS5003;41674;52.290;-1.474;2022-10-30T15:11:57;2;2;
55754;PMS5003;41674;52.290;-1.474;2022-10-30T15:14:18;0;0;
55754;PMS5003;41674;52.290;-1.474;2022-10-30T15:16:46;0;0;
55754;PMS5003;41674;52.290;-1.474;2022-10-30T15:19:16;0;0;
55754;PMS5003;41674;52.290;-1.474;2022-10-30T15:21:47;4;4;
55754;PMS5003;41674;52.290;-1.474;2022-10-30T15:24:16;1;1;
55754;PMS5003;41674;52.290;-1.474;2022-10-30T15:26:46;1;1;
55754;PMS5003;41674;52.290;-1.474;2022-10-30T15:29:16;0;0;
55754;PMS5003;41674;52.290;-1.474;2022-10-30T15:34:17;3;1;
55754;PMS5003;41674;52.290;-1.474;2022-10-30T15:36:42;3;2;
55754;PMS5003;41674;52.290;-1.474;2022-10-30T15:39:13;3;2;
55754;PMS5003;41674;52.290;-1.474;2022-10-30T15:41:42;3;3;
55754;PMS5003;41674;52.290;-1.474;2022-10-30T15:44:11;3;1;
55754;PMS5003;41674;52.290;-1.474;2022-10-30T15:46:42;3;3;
55754;PMS5003;41674;52.290;-1.474;2022-10-30T15:49:11;0;0;
55754;PMS5003;41674;52.290;-1.474;2022-10-30T15:51:41;1;1;
55754;PMS5003;41674;52.290;-1.474;2022-10-30T15:54:09;4;2;
55754;PMS5003;41674;52.290;-1.474;2022-10-30T15:56:40;1;1;
55754;PMS5003;41674;52.290;-1.474;2022-10-30T15:59:14;1;1;
55754;PMS5003;41674;52.290;-1.474;2022-10-30T16:01:42;2;2;
55754;PMS5003;41674;52.290;-1.474;2022-10-30T16:06:36;0;0;
55754;PMS5003;41674;52.290;-1.474;2022-10-30T16:09:11;2;2;
55754;PMS5003;41674;52.290;-1.474;2022-10-30T16:11:35;13;10;
55754;PMS5003;41674;52.290;-1.474;2022-10-30T16:14:06;2;2;
55754;PMS5003;41674;52.290;-1.474;2022-10-30T16:16:34;6;5;
55754;PMS5003;41674;52.290;-1.474;2022-10-30T16:19:04;6;5;
55754;PMS5003;41674;52.290;-1.474;2022-10-30T16:21:33;2;1;
55754;PMS5003;41674;52.290;-1.474;2022-10-30T16:24:03;3;3;
55754;PMS5003;41674;52.290;-1.474;2022-10-30T16:26:33;0;0;
55754;PMS5003;41674;52.290;-1.474;2022-10-30T16:29:06;2;2;
55754;PMS5003;41674;52.290;-1.474;2022-10-30T16:31:32;16;15;
55754;PMS5003;41674;52.290;-1.474;2022-10-30T16:34:00;25;21;
55754;PMS5003;41674;52.290;-1.474;2022-10-30T16:36:30;10;10;
55754;PMS5003;41674;52.290;-1.474;2022-10-30T16:38:59;10;7;
55754;PMS5003;41674;52.290;-1.474;2022-10-30T16:41:29;4;4;
55754;PMS5003;41674;52.290;-1.474;2022-10-30T16:46:34;4;4;
55754;PMS5003;41674;52.290;-1.474;2022-10-30T16:48:57;9;8;
55754;PMS5003;41674;52.290;-1.474;2022-10-30T16:51:27;182;164;
55754;PMS5003;41674;52.290;-1.474;2022-10-30T16:53:56;214;179;
55754;PMS5003;41674;52.290;-1.474;2022-10-30T16:56:26;150;136;
55754;PMS5003;41674;52.290;-1.474;2022-10-30T16:58:55;31;30;
55754;PMS5003;41674;52.290;-1.474;2022-10-30T17:01:25;10;10;
55754;PMS5003;41674;52.290;-1.474;2022-10-30T17:03:53;13;12;
55754;PMS5003;41674;52.290;-1.474;2022-10-30T17:06:24;64;61;
55754;PMS5003;41674;52.290;-1.474;2022-10-30T17:08:53;16;16;
55754;PMS5003;41674;52.290;-1.474;2022-10-30T17:13:55;5;4;
55754;PMS5003;41674;52.290;-1.474;2022-10-30T17:16:21;4;2;